sensor_id;sensor_type;location;lat;lon;timestamp;pressure;altitude;pressure_sealevel;temperature;humidity
10992;BME280;5549;47.028;15.514;2023-05-06T00:02:19;96561.34;;;17.28;54.16
10992;BME280;5549;47.028;15.514;2023-05-06T00:04:47;96569.16;;;17.22;54.22
10992;BME280;5549;47.028;15.514;2023-05-06T00:07:15;96567.34;;;17.22;54.28
10992;BME280;5549;47.028;15.514;2023-05-06T00:09:45;96561.78;;;16.77;55.93
10992;BME280;5549;47.028;15.514;2023-05-06T00:12:13;96552.16;;;16.84;55.95
10992;BME280;5549;47.028;15.514;2023-05-06T00:14:41;96541.88;;;16.81;55.64
10992;BME280;5549;47.028;15.514;2023-05-06T00:17:08;96552.31;;;16.82;55.97
10992;BME280;5549;47.028;15.514;2023-05-06T00:19:36;96551.84;;;16.79;55.89
10992;BME280;5549;47.028;15.514;2023-05-06T00:22:07;96553.66;;;16.70;56.22
10992;BME280;5549;47.028;15.514;2023-05-06T00:24:36;96550.00;;;16.79;55.51
10992;BME280;5549;47.028;15.514;2023-05-06T00:27:03;96561.59;;;16.78;55.59
10992;BME280;5549;47.028;15.514;2023-05-06T00:29:31;96550.97;;;16.94;55.13
10992;BME280;5549;47.028;15.514;2023-05-06T00:32:01;96549.97;;;16.95;54.65
10992;BME280;5549;47.028;15.514;2023-05-06T00:34:28;96550.63;;;17.06;54.38
10992;BME280;5549;47.028;15.514;2023-05-06T00:36:56;96555.09;;;17.13;54.21
10992;BME280;5549;47.028;15.514;2023-05-06T00:39:24;96544.44;;;17.21;53.44
10992;BME280;5549;47.028;15.514;2023-05-06T00:42:00;96546.09;;;17.22;53.63
10992;BME280;5549;47.028;15.514;2023-05-06T00:44:30;96556.88;;;17.21;55.72
10992;BME280;5549;47.028;15.514;2023-05-06T00:46:59;96555.56;;;17.17;55.13
10992;BME280;5549;47.028;15.514;2023-05-06T00:49:29;96558.25;;;17.09;55.15
10992;BME280;5549;47.028;15.514;2023-05-06T00:51:59;96558.25;;;17.00;55.51
10992;BME280;5549;47.028;15.514;2023-05-06T00:54:29;96558.59;;;16.97;55.75
10992;BME280;5549;47.028;15.514;2023-05-06T00:56:58;96557.94;;;16.95;55.84
10992;BME280;5549;47.028;15.514;2023-05-06T00:59:26;96563.59;;;16.84;56.42
10992;BME280;5549;47.028;15.514;2023-05-06T01:01:57;96565.25;;;16.69;56.90
10992;BME280;5549;47.028;15.514;2023-05-06T01:04:24;96572.72;;;16.65;56.97
10992;BME280;5549;47.028;15.514;2023-05-06T01:07:03;96570.22;;;16.56;57.20
10992;BME280;5549;47.028;15.514;2023-05-06T01:09:40;96577.16;;;16.57;57.45
10992;BME280;5549;47.028;15.514;2023-05-06T01:12:18;96573.69;;;16.40;57.65
10992;BME280;5549;47.028;15.514;2023-05-06T01:15:00;96567.72;;;16.46;57.79
10992;BME280;5549;47.028;15.514;2023-05-06T01:17:34;96575.84;;;16.53;57.16
10992;BME280;5549;47.028;15.514;2023-05-06T01:20:06;96571.38;;;16.53;57.26
10992;BME280;5549;47.028;15.514;2023-05-06T01:22:37;96574.03;;;16.53;57.38
10992;BME280;5549;47.028;15.514;2023-05-06T01:25:07;96568.72;;;16.53;57.03
10992;BME280;5549;47.028;15.514;2023-05-06T01:27:46;96575.50;;;16.56;56.74
10992;BME280;5549;47.028;15.514;2023-05-06T01:30:17;96569.88;;;16.59;56.72
10992;BME280;5549;47.028;15.514;2023-05-06T01:32:57;96576.84;;;16.60;56.69
10992;BME280;5549;47.028;15.514;2023-05-06T01:35:34;96577.34;;;16.63;56.57
10992;BME280;5549;47.028;15.514;2023-05-06T01:38:10;96583.34;;;16.65;56.13
10992;BME280;5549;47.028;15.514;2023-05-06T01:40:43;96584.00;;;16.67;55.92
10992;BME280;5549;47.028;15.514;2023-05-06T01:43:16;96584.81;;;16.68;55.95
10992;BME280;5549;47.028;15.514;2023-05-06T01:45:48;96572.19;;;16.62;56.36
10992;BME280;5549;47.028;15.514;2023-05-06T01:48:20;96579.31;;;16.61;57.02
10992;BME280;5549;47.028;15.514;2023-05-06T01:50:48;96580.47;;;16.59;56.89
10992;BME280;5549;47.028;15.514;2023-05-06T01:53:18;96576.16;;;16.58;57.00
10992;BME280;5549;47.028;15.514;2023-05-06T01:55:48;96566.56;;;16.57;56.82
10992;BME280;5549;47.028;15.514;2023-05-06T01:58:18;96570.72;;;16.59;56.38
10992;BME280;5549;47.028;15.514;2023-05-06T02:00:48;96572.69;;;16.57;56.87
10992;BME280;5549;47.028;15.514;2023-05-06T02:03:18;96575.19;;;16.59;56.21
10992;BME280;5549;47.028;15.514;2023-05-06T02:05:47;96575.84;;;16.61;56.31
10992;BME280;5549;47.028;15.514;2023-05-06T02:08:17;96569.53;;;16.62;56.31
10992;BME280;5549;47.028;15.514;2023-05-06T02:10:46;96577.88;;;16.67;56.48
10992;BME280;5549;47.028;15.514;2023-05-06T02:13:17;96576.88;;;16.68;56.53
10992;BME280;5549;47.028;15.514;2023-05-06T02:15:45;96577.53;;;16.70;56.84
10992;BME280;5549;47.028;15.514;2023-05-06T02:18:16;96578.34;;;16.71;56.68
10992;BME280;5549;47.028;15.514;2023-05-06T02:20:46;96580.19;;;16.70;58.03
10992;BME280;5549;47.028;15.514;2023-05-06T02:23:16;96579.19;;;16.71;57.35
10992;BME280;5549;47.028;15.514;2023-05-06T02:25:44;96578.34;;;16.71;57.62
10992;BME280;5549;47.028;15.514;2023-05-06T02:28:16;96575.84;;;16.61;58.29
10992;BME280;5549;47.028;15.514;2023-05-06T02:30:44;96570.22;;;16.48;58.74
10992;BME280;5549;47.028;15.514;2023-05-06T02:33:14;96564.91;;;16.48;58.25
10992;BME280;5549;47.028;15.514;2023-05-06T02:35:41;96570.22;;;16.48;58.22
10992;BME280;5549;47.028;15.514;2023-05-06T02:38:09;96564.06;;;16.47;58.32
10992;BME280;5549;47.028;15.514;2023-05-06T02:40:39;96564.91;;;16.31;58.50
10992;BME280;5549;47.028;15.514;2023-05-06T02:43:06;96558.28;;;16.35;58.65
10992;BME280;5549;47.028;15.514;2023-05-06T02:45:35;96552.66;;;16.39;58.49
10992;BME280;5549;47.028;15.514;2023-05-06T02:48:04;96546.84;;;16.35;58.59
10992;BME280;5549;47.028;15.514;2023-05-06T02:50:34;96546.84;;;16.35;58.34
10992;BME280;5549;47.028;15.514;2023-05-06T02:53:04;96545.69;;;16.38;58.31
10992;BME280;5549;47.028;15.514;2023-05-06T02:55:33;96534.75;;;16.41;57.71
10992;BME280;5549;47.028;15.514;2023-05-06T02:58:01;96542.03;;;16.47;57.22
10992;BME280;5549;47.028;15.514;2023-05-06T03:00:31;96540.06;;;16.49;57.24
10992;BME280;5549;47.028;15.514;2023-05-06T03:03:00;96545.69;;;16.54;57.01
10992;BME280;5549;47.028;15.514;2023-05-06T03:05:27;96542.03;;;16.55;57.89
10992;BME280;5549;47.028;15.514;2023-05-06T03:07:55;96540.38;;;16.54;58.77
10992;BME280;5549;47.028;15.514;2023-05-06T03:10:25;96543.03;;;16.54;58.98
10992;BME280;5549;47.028;15.514;2023-05-06T03:12:52;96545.03;;;16.52;58.02
10992;BME280;5549;47.028;15.514;2023-05-06T03:15:20;96545.69;;;16.54;57.84
10992;BME280;5549;47.028;15.514;2023-05-06T03:17:49;96545.03;;;16.52;58.81
10992;BME280;5549;47.028;15.514;2023-05-06T03:20:19;96548.00;;;16.49;59.10
10992;BME280;5549;47.028;15.514;2023-05-06T03:22:50;96552.66;;;16.39;59.37
10992;BME280;5549;47.028;15.514;2023-05-06T03:25:18;96551.00;;;16.38;59.33
10992;BME280;5549;47.028;15.514;2023-05-06T03:27:48;96553.31;;;16.32;59.88
10992;BME280;5549;47.028;15.514;2023-05-06T03:30:18;96559.09;;;16.28;59.90
10992;BME280;5549;47.028;15.514;2023-05-06T03:32:47;96549.78;;;16.08;60.14
10992;BME280;5549;47.028;15.514;2023-05-06T03:35:15;96543.66;;;16.07;60.41
10992;BME280;5549;47.028;15.514;2023-05-06T03:37:47;96545.97;;;16.02;60.75
10992;BME280;5549;47.028;15.514;2023-05-06T03:40:14;96541.34;;;15.96;60.94
10992;BME280;5549;47.028;15.514;2023-05-06T03:42:45;96545.63;;;15.97;60.66
10992;BME280;5549;47.028;15.514;2023-05-06T03:45:14;96539.16;;;15.83;61.58
10992;BME280;5549;47.028;15.514;2023-05-06T03:47:42;96535.69;;;15.83;61.24
10992;BME280;5549;47.028;15.514;2023-05-06T03:50:09;96532.19;;;15.82;61.25
10992;BME280;5549;47.028;15.514;2023-05-06T03:52:39;96532.34;;;15.73;62.03
10992;BME280;5549;47.028;15.514;2023-05-06T03:55:10;96536.47;;;15.67;62.13
10992;BME280;5549;47.028;15.514;2023-05-06T03:57:40;96534.81;;;15.66;62.38
10992;BME280;5549;47.028;15.514;2023-05-06T04:00:10;96537.28;;;15.67;62.44
10992;BME280;5549;47.028;15.514;2023-05-06T04:02:40;96533.97;;;15.65;61.99
10992;BME280;5549;47.028;15.514;2023-05-06T04:05:08;96528.69;;;15.65;62.44
10992;BME280;5549;47.028;15.514;2023-05-06T04:07:38;96531.69;;;15.70;61.90
10992;BME280;5549;47.028;15.514;2023-05-06T04:10:07;96535.50;;;15.76;60.46
10992;BME280;5549;47.028;15.514;2023-05-06T04:12:37;96540.97;;;15.83;60.19
10992;BME280;5549;47.028;15.514;2023-05-06T04:15:06;96548.09;;;15.90;59.87
10992;BME280;5549;47.028;15.514;2023-05-06T04:17:33;96546.59;;;15.80;61.36
10992;BME280;5549;47.028;15.514;2023-05-06T04:20:01;96548.94;;;15.91;61.00
10992;BME280;5549;47.028;15.514;2023-05-06T04:22:36;96540.28;;;15.73;62.06
10992;BME280;5549;47.028;15.514;2023-05-06T04:25:08;96539.47;;;15.72;61.72
10992;BME280;5549;47.028;15.514;2023-05-06T04:27:39;96539.63;;;15.79;61.90
10992;BME280;5549;47.028;15.514;2023-05-06T04:30:08;96542.31;;;15.87;61.41
10992;BME280;5549;47.028;15.514;2023-05-06T04:32:36;96529.06;;;15.79;61.79
10992;BME280;5549;47.028;15.514;2023-05-06T04:35:07;96533.34;;;15.71;62.44
10992;BME280;5549;47.028;15.514;2023-05-06T04:37:35;96524.75;;;15.78;61.94
10992;BME280;5549;47.028;15.514;2023-05-06T04:40:04;96522.75;;;15.80;61.65
10992;BME280;5549;47.028;15.514;2023-05-06T04:42:32;96521.75;;;15.73;63.01
10992;BME280;5549;47.028;15.514;2023-05-06T04:45:04;96539.63;;;15.79;62.25
10992;BME280;5549;47.028;15.514;2023-05-06T04:47:32;96544.63;;;15.90;61.43
10992;BME280;5549;47.028;15.514;2023-05-06T04:50:00;96548.28;;;15.97;61.81
10992;BME280;5549;47.028;15.514;2023-05-06T04:52:29;96548.78;;;16.00;62.92
10992;BME280;5549;47.028;15.514;2023-05-06T04:54:59;96553.75;;;16.03;63.14
10992;BME280;5549;47.028;15.514;2023-05-06T04:57:27;96560.88;;;15.95;62.71
10992;BME280;5549;47.028;15.514;2023-05-06T04:59:54;96564.84;;;15.99;63.28
10992;BME280;5549;47.028;15.514;2023-05-06T05:02:23;96573.09;;;15.88;64.47
10992;BME280;5549;47.028;15.514;2023-05-06T05:04:51;96574.28;;;15.93;64.07
10992;BME280;5549;47.028;15.514;2023-05-06T05:07:21;96575.59;;;15.97;64.42
10992;BME280;5549;47.028;15.514;2023-05-06T05:09:51;96577.59;;;15.95;63.68
10992;BME280;5549;47.028;15.514;2023-05-06T05:12:18;96580.75;;;15.99;63.86
10992;BME280;5549;47.028;15.514;2023-05-06T05:14:46;96574.78;;;16.05;63.48
10992;BME280;5549;47.028;15.514;2023-05-06T05:17:15;96575.31;;;16.17;63.32
10992;BME280;5549;47.028;15.514;2023-05-06T05:19:44;96582.44;;;16.24;63.85
10992;BME280;5549;47.028;15.514;2023-05-06T05:22:12;96579.81;;;16.32;63.58
10992;BME280;5549;47.028;15.514;2023-05-06T05:24:40;96583.78;;;16.45;63.66
10992;BME280;5549;47.028;15.514;2023-05-06T05:27:08;96587.94;;;16.47;63.36
10992;BME280;5549;47.028;15.514;2023-05-06T05:29:36;96575.84;;;16.53;63.28
10992;BME280;5549;47.028;15.514;2023-05-06T05:32:06;96585.28;;;16.63;62.67
10992;BME280;5549;47.028;15.514;2023-05-06T05:34:34;96582.00;;;16.70;63.05
10992;BME280;5549;47.028;15.514;2023-05-06T05:37:03;96579.34;;;16.78;62.57
10992;BME280;5549;47.028;15.514;2023-05-06T05:39:34;96579.50;;;16.76;62.69
10992;BME280;5549;47.028;15.514;2023-05-06T05:42:01;96577.53;;;16.78;62.28
10992;BME280;5549;47.028;15.514;2023-05-06T05:44:29;96587.78;;;16.89;62.28
10992;BME280;5549;47.028;15.514;2023-05-06T05:46:56;96586.13;;;16.88;63.17
10992;BME280;5549;47.028;15.514;2023-05-06T05:49:24;96583.97;;;17.00;62.89
10992;BME280;5549;47.028;15.514;2023-05-06T05:51:54;96589.44;;;17.07;62.52
10992;BME280;5549;47.028;15.514;2023-05-06T05:54:26;96584.78;;;17.09;62.23
10992;BME280;5549;47.028;15.514;2023-05-06T05:56:54;96588.06;;;17.19;62.44
10992;BME280;5549;47.028;15.514;2023-05-06T05:59:21;96597.69;;;17.28;62.22
10992;BME280;5549;47.028;15.514;2023-05-06T06:01:51;96599.81;;;17.49;62.22
10992;BME280;5549;47.028;15.514;2023-05-06T06:04:21;96599.44;;;17.60;61.84
10992;BME280;5549;47.028;15.514;2023-05-06T06:06:48;96591.63;;;17.67;61.19
10992;BME280;5549;47.028;15.514;2023-05-06T06:09:16;96602.47;;;17.96;61.54
10992;BME280;5549;47.028;15.514;2023-05-06T06:11:48;96592.69;;;18.19;60.61
10992;BME280;5549;47.028;15.514;2023-05-06T06:14:15;96601.34;;;18.44;60.00
10992;BME280;5549;47.028;15.514;2023-05-06T06:16:43;96599.00;;;18.72;59.21
10992;BME280;5549;47.028;15.514;2023-05-06T06:19:11;96602.75;;;19.01;58.44
10992;BME280;5549;47.028;15.514;2023-05-06T06:21:39;96599.88;;;19.25;57.77
10992;BME280;5549;47.028;15.514;2023-05-06T06:24:09;96598.63;;;19.50;57.07
10992;BME280;5549;47.028;15.514;2023-05-06T06:26:39;96600.75;;;19.70;56.40
10992;BME280;5549;47.028;15.514;2023-05-06T06:29:08;96607.34;;;19.89;55.59
10992;BME280;5549;47.028;15.514;2023-05-06T06:31:36;96605.50;;;20.04;55.29
10992;BME280;5549;47.028;15.514;2023-05-06T06:34:05;96596.81;;;20.16;54.93
10992;BME280;5549;47.028;15.514;2023-05-06T06:36:34;96598.63;;;20.31;54.47
10992;BME280;5549;47.028;15.514;2023-05-06T06:39:02;96598.06;;;20.35;53.99
10992;BME280;5549;47.028;15.514;2023-05-06T06:41:30;96603.13;;;20.45;54.00
10992;BME280;5549;47.028;15.514;2023-05-06T06:43:59;96603.88;;;20.60;53.86
10992;BME280;5549;47.028;15.514;2023-05-06T06:46:30;96599.31;;;20.75;53.32
10992;BME280;5549;47.028;15.514;2023-05-06T06:49:00;96599.03;;;20.85;53.54
10992;BME280;5549;47.028;15.514;2023-05-06T06:51:30;96597.66;;;20.96;52.99
10992;BME280;5549;47.028;15.514;2023-05-06T06:54:00;96606.19;;;21.06;52.80
10992;BME280;5549;47.028;15.514;2023-05-06T06:56:27;96609.16;;;21.18;52.69
10992;BME280;5549;47.028;15.514;2023-05-06T06:58:57;96605.16;;;21.28;52.29
10992;BME280;5549;47.028;15.514;2023-05-06T07:01:25;96598.88;;;21.42;52.08
10992;BME280;5549;47.028;15.514;2023-05-06T07:03:56;96601.00;;;21.54;51.79
10992;BME280;5549;47.028;15.514;2023-05-06T07:06:24;96597.78;;;21.65;51.54
10992;BME280;5549;47.028;15.514;2023-05-06T07:08:51;96595.06;;;21.58;50.81
10992;BME280;5549;47.028;15.514;2023-05-06T07:11:21;96598.66;;;21.44;50.14
10992;BME280;5549;47.028;15.514;2023-05-06T07:13:51;96594.59;;;21.48;50.70
10992;BME280;5549;47.028;15.514;2023-05-06T07:16:21;96591.25;;;21.39;51.22
10992;BME280;5549;47.028;15.514;2023-05-06T07:18:50;96599.50;;;21.44;51.51
10992;BME280;5549;47.028;15.514;2023-05-06T07:21:20;96597.22;;;21.41;51.57
10992;BME280;5549;47.028;15.514;2023-05-06T07:23:49;96595.66;;;21.54;51.46
10992;BME280;5549;47.028;15.514;2023-05-06T07:26:17;96594.66;;;21.61;51.57
10992;BME280;5549;47.028;15.514;2023-05-06T07:28:45;96595.56;;;21.75;50.73
10992;BME280;5549;47.028;15.514;2023-05-06T07:31:12;96593.84;;;21.61;51.56
10992;BME280;5549;47.028;15.514;2023-05-06T07:33:43;96599.03;;;21.69;51.88
10992;BME280;5549;47.028;15.514;2023-05-06T07:36:13;96603.66;;;21.54;50.29
10992;BME280;5549;47.028;15.514;2023-05-06T07:38:42;96608.22;;;21.60;49.95
10992;BME280;5549;47.028;15.514;2023-05-06T07:41:11;96603.91;;;21.59;49.47
10992;BME280;5549;47.028;15.514;2023-05-06T07:43:39;96595.56;;;21.75;50.59
10992;BME280;5549;47.028;15.514;2023-05-06T07:46:09;96598.47;;;21.80;48.08
10992;BME280;5549;47.028;15.514;2023-05-06T07:48:37;96596.84;;;21.86;49.60
10992;BME280;5549;47.028;15.514;2023-05-06T07:51:04;96594.22;;;21.92;49.60
10992;BME280;5549;47.028;15.514;2023-05-06T07:53:32;96597.72;;;21.93;48.44
10992;BME280;5549;47.028;15.514;2023-05-06T07:56:01;96592.63;;;22.04;47.86
10992;BME280;5549;47.028;15.514;2023-05-06T07:58:31;96598.22;;;22.09;47.98
10992;BME280;5549;47.028;15.514;2023-05-06T08:01:01;96598.44;;;22.15;48.40
10992;BME280;5549;47.028;15.514;2023-05-06T08:03:29;96595.75;;;22.15;48.57
10992;BME280;5549;47.028;15.514;2023-05-06T08:05:57;96598.53;;;22.41;48.33
10992;BME280;5549;47.028;15.514;2023-05-06T08:08:26;96595.00;;;22.34;47.94
10992;BME280;5549;47.028;15.514;2023-05-06T08:10:57;96599.47;;;22.14;47.68
10992;BME280;5549;47.028;15.514;2023-05-06T08:13:26;96599.72;;;22.32;49.14
10992;BME280;5549;47.028;15.514;2023-05-06T08:15:54;96596.66;;;22.41;47.23
10992;BME280;5549;47.028;15.514;2023-05-06T08:18:24;96599.28;;;22.83;49.63
10992;BME280;5549;47.028;15.514;2023-05-06T08:20:53;96602.59;;;23.04;46.29
10992;BME280;5549;47.028;15.514;2023-05-06T08:23:24;96597.63;;;23.08;47.55
10992;BME280;5549;47.028;15.514;2023-05-06T08:25:51;96594.53;;;23.31;47.49
10992;BME280;5549;47.028;15.514;2023-05-06T08:28:19;96600.69;;;23.64;48.93
10992;BME280;5549;47.028;15.514;2023-05-06T08:30:48;96589.44;;;24.00;48.51
10992;BME280;5549;47.028;15.514;2023-05-06T08:33:17;96592.97;;;23.94;46.72
10992;BME280;5549;47.028;15.514;2023-05-06T08:35:48;96592.22;;;23.74;44.43
10992;BME280;5549;47.028;15.514;2023-05-06T08:38:15;96593.63;;;23.83;45.24
10992;BME280;5549;47.028;15.514;2023-05-06T08:40:46;96595.66;;;23.94;45.02
10992;BME280;5549;47.028;15.514;2023-05-06T08:43:19;96594.19;;;23.98;46.79
10992;BME280;5549;47.028;15.514;2023-05-06T08:45:48;96594.13;;;24.12;47.40
10992;BME280;5549;47.028;15.514;2023-05-06T08:48:17;96590.00;;;24.29;45.22
10992;BME280;5549;47.028;15.514;2023-05-06T08:50:47;96590.38;;;24.33;44.26
10992;BME280;5549;47.028;15.514;2023-05-06T08:53:15;96592.03;;;24.27;43.59
10992;BME280;5549;47.028;15.514;2023-05-06T08:55:43;96592.00;;;24.40;43.54
10992;BME280;5549;47.028;15.514;2023-05-06T08:58:13;96592.00;;;24.40;45.60
10992;BME280;5549;47.028;15.514;2023-05-06T09:00:42;96591.66;;;24.61;43.10
10992;BME280;5549;47.028;15.514;2023-05-06T09:03:12;96589.50;;;24.77;44.97
10992;BME280;5549;47.028;15.514;2023-05-06T09:05:42;96584.69;;;24.85;45.20
10992;BME280;5549;47.028;15.514;2023-05-06T09:08:11;96584.56;;;24.74;44.44
10992;BME280;5549;47.028;15.514;2023-05-06T09:10:45;96580.28;;;25.22;43.58
10992;BME280;5549;47.028;15.514;2023-05-06T09:13:17;96581.69;;;25.50;43.57
10992;BME280;5549;47.028;15.514;2023-05-06T09:15:48;96582.94;;;25.47;41.65
10992;BME280;5549;47.028;15.514;2023-05-06T09:18:19;96567.81;;;25.89;39.83
10992;BME280;5549;47.028;15.514;2023-05-06T09:20:48;96567.69;;;25.84;40.06
10992;BME280;5549;47.028;15.514;2023-05-06T09:23:20;96580.03;;;25.49;40.54
10992;BME280;5549;47.028;15.514;2023-05-06T09:25:50;96571.72;;;25.75;38.93
10992;BME280;5549;47.028;15.514;2023-05-06T09:28:20;96570.22;;;25.79;38.27
10992;BME280;5549;47.028;15.514;2023-05-06T09:30:48;96578.13;;;25.74;39.14
10992;BME280;5549;47.028;15.514;2023-05-06T09:33:20;96579.03;;;25.68;40.37
10992;BME280;5549;47.028;15.514;2023-05-06T09:35:48;96575.91;;;25.71;38.96
10992;BME280;5549;47.028;15.514;2023-05-06T09:38:19;96573.72;;;25.80;39.21
10992;BME280;5549;47.028;15.514;2023-05-06T09:40:46;96571.88;;;25.80;39.80
10992;BME280;5549;47.028;15.514;2023-05-06T09:43:17;96575.63;;;25.54;39.99
10992;BME280;5549;47.028;15.514;2023-05-06T09:45:45;96573.47;;;25.63;39.23
10992;BME280;5549;47.028;15.514;2023-05-06T09:48:14;96562.81;;;25.75;37.38
10992;BME280;5549;47.028;15.514;2023-05-06T09:50:43;96551.09;;;25.87;38.67
10992;BME280;5549;47.028;15.514;2023-05-06T09:53:12;96555.66;;;26.05;36.12
10992;BME280;5549;47.028;15.514;2023-05-06T09:55:43;96559.59;;;25.84;36.87
10992;BME280;5549;47.028;15.514;2023-05-06T09:58:15;96555.88;;;25.67;37.58
10992;BME280;5549;47.028;15.514;2023-05-06T10:00:45;96555.50;;;25.82;38.86
10992;BME280;5549;47.028;15.514;2023-05-06T10:03:16;96547.03;;;26.15;37.43
10992;BME280;5549;47.028;15.514;2023-05-06T10:05:46;96547.16;;;26.38;38.13
10992;BME280;5549;47.028;15.514;2023-05-06T10:08:18;96545.16;;;26.34;37.82
10992;BME280;5549;47.028;15.514;2023-05-06T10:10:49;96539.59;;;26.47;37.79
10992;BME280;5549;47.028;15.514;2023-05-06T10:13:18;96539.09;;;26.80;37.67
10992;BME280;5549;47.028;15.514;2023-05-06T10:15:49;96541.13;;;26.55;36.05
10992;BME280;5549;47.028;15.514;2023-05-06T10:18:19;96542.88;;;26.49;35.21
10992;BME280;5549;47.028;15.514;2023-05-06T10:20:49;96533.44;;;26.70;35.98
10992;BME280;5549;47.028;15.514;2023-05-06T10:23:33;96533.09;;;26.78;35.95
10992;BME280;5549;47.028;15.514;2023-05-06T10:26:09;96530.22;;;26.49;35.64
10992;BME280;5549;47.028;15.514;2023-05-06T10:28:40;96522.03;;;26.44;34.98
10992;BME280;5549;47.028;15.514;2023-05-06T10:31:11;96516.22;;;26.71;33.87
10992;BME280;5549;47.028;15.514;2023-05-06T10:33:40;96519.19;;;26.81;36.21
10992;BME280;5549;47.028;15.514;2023-05-06T10:36:17;96513.91;;;26.74;36.49
10992;BME280;5549;47.028;15.514;2023-05-06T10:38:49;96518.78;;;26.66;36.04
10992;BME280;5549;47.028;15.514;2023-05-06T10:41:20;96517.31;;;26.93;34.03
10992;BME280;5549;47.028;15.514;2023-05-06T10:43:50;96514.53;;;27.11;34.32
10992;BME280;5549;47.028;15.514;2023-05-06T10:46:22;96515.38;;;27.24;34.42
10992;BME280;5549;47.028;15.514;2023-05-06T10:49:16;96516.88;;;27.20;33.54
10992;BME280;5549;47.028;15.514;2023-05-06T10:51:47;96513.72;;;27.34;34.22
10992;BME280;5549;47.028;15.514;2023-05-06T10:54:22;96498.13;;;27.36;33.11
10992;BME280;5549;47.028;15.514;2023-05-06T10:57:08;96507.00;;;26.90;34.39
10992;BME280;5549;47.028;15.514;2023-05-06T10:59:44;96494.25;;;26.97;33.13
10992;BME280;5549;47.028;15.514;2023-05-06T11:02:19;96493.91;;;27.05;32.77
10992;BME280;5549;47.028;15.514;2023-05-06T11:04:50;96497.94;;;26.61;33.62
10992;BME280;5549;47.028;15.514;2023-05-06T11:07:23;96496.09;;;26.73;34.83
10992;BME280;5549;47.028;15.514;2023-05-06T11:09:54;96504.06;;;26.80;34.97
10992;BME280;5549;47.028;15.514;2023-05-06T11:12:46;96489.31;;;26.82;34.76
10992;BME280;5549;47.028;15.514;2023-05-06T11:15:38;96492.66;;;26.55;36.30
10992;BME280;5549;47.028;15.514;2023-05-06T11:18:46;96495.84;;;26.63;34.78
10992;BME280;5549;47.028;15.514;2023-05-06T11:21:35;96485.16;;;25.60;35.95
10992;BME280;5549;47.028;15.514;2023-05-06T11:24:12;96486.38;;;25.64;36.38
10992;BME280;5549;47.028;15.514;2023-05-06T11:26:42;96477.25;;;25.83;35.79
10992;BME280;5549;47.028;15.514;2023-05-06T11:29:10;96491.53;;;25.84;34.71
10992;BME280;5549;47.028;15.514;2023-05-06T11:31:40;96488.53;;;25.92;34.73
10992;BME280;5549;47.028;15.514;2023-05-06T11:34:19;96488.38;;;26.05;36.01
10992;BME280;5549;47.028;15.514;2023-05-06T11:36:55;96488.19;;;26.18;36.94
10992;BME280;5549;47.028;15.514;2023-05-06T11:39:25;96485.47;;;26.07;33.09
10992;BME280;5549;47.028;15.514;2023-05-06T11:41:58;96493.19;;;26.33;33.37
10992;BME280;5549;47.028;15.514;2023-05-06T11:44:30;96493.25;;;26.27;35.31
10992;BME280;5549;47.028;15.514;2023-05-06T11:47:02;96489.72;;;26.44;36.92
10992;BME280;5549;47.028;15.514;2023-05-06T11:49:35;96487.41;;;26.30;35.07
10992;BME280;5549;47.028;15.514;2023-05-06T11:52:04;96486.53;;;26.36;36.97
10992;BME280;5549;47.028;15.514;2023-05-06T11:54:37;96483.19;;;26.22;34.10
10992;BME280;5549;47.028;15.514;2023-05-06T11:57:07;96494.16;;;26.50;36.51
10992;BME280;5549;47.028;15.514;2023-05-06T11:59:39;96492.88;;;26.53;34.48
10992;BME280;5549;47.028;15.514;2023-05-06T12:02:12;96486.06;;;26.39;34.36
10992;BME280;5549;47.028;15.514;2023-05-06T12:04:43;96489.72;;;26.44;34.31
10992;BME280;5549;47.028;15.514;2023-05-06T12:07:13;96486.28;;;26.37;34.87
10992;BME280;5549;47.028;15.514;2023-05-06T12:09:44;96493.00;;;26.46;34.90
10992;BME280;5549;47.028;15.514;2023-05-06T12:12:17;96498.13;;;26.36;34.33
10992;BME280;5549;47.028;15.514;2023-05-06T12:14:48;96502.44;;;26.37;33.43
10992;BME280;5549;47.028;15.514;2023-05-06T12:17:16;96502.44;;;26.37;33.62
10992;BME280;5549;47.028;15.514;2023-05-06T12:19:47;96506.41;;;26.35;34.27
10992;BME280;5549;47.028;15.514;2023-05-06T12:22:16;96502.59;;;26.24;33.77
10992;BME280;5549;47.028;15.514;2023-05-06T12:24:46;96489.47;;;26.16;33.60
10992;BME280;5549;47.028;15.514;2023-05-06T12:27:30;96483.34;;;26.09;34.07
10992;BME280;5549;47.028;15.514;2023-05-06T12:30:00;96481.50;;;25.91;36.06
10992;BME280;5549;47.028;15.514;2023-05-06T12:32:31;96490.03;;;26.06;34.94
10992;BME280;5549;47.028;15.514;2023-05-06T12:34:59;96494.13;;;26.09;36.07
10992;BME280;5549;47.028;15.514;2023-05-06T12:37:30;96489.94;;;26.13;38.95
10992;BME280;5549;47.028;15.514;2023-05-06T12:40:02;96486.88;;;26.09;39.63
10992;BME280;5549;47.028;15.514;2023-05-06T12:42:30;96495.47;;;25.26;42.43
10992;BME280;5549;47.028;15.514;2023-05-06T12:45:12;96493.22;;;25.05;39.81
10992;BME280;5549;47.028;15.514;2023-05-06T12:47:52;96490.91;;;24.27;41.14
10992;BME280;5549;47.028;15.514;2023-05-06T12:50:33;96486.41;;;23.70;42.17
10992;BME280;5549;47.028;15.514;2023-05-06T12:53:05;96496.47;;;23.81;41.28
10992;BME280;5549;47.028;15.514;2023-05-06T12:55:37;96490.38;;;23.61;41.60
10992;BME280;5549;47.028;15.514;2023-05-06T12:58:14;96487.47;;;23.62;41.85
10992;BME280;5549;47.028;15.514;2023-05-06T13:00:43;96480.06;;;24.03;41.71
10992;BME280;5549;47.028;15.514;2023-05-06T13:03:12;96478.50;;;24.33;41.60
10992;BME280;5549;47.028;15.514;2023-05-06T13:05:42;96482.38;;;24.37;39.84
10992;BME280;5549;47.028;15.514;2023-05-06T13:08:14;96484.47;;;24.35;41.73
10992;BME280;5549;47.028;15.514;2023-05-06T13:10:46;96482.56;;;24.42;39.69
10992;BME280;5549;47.028;15.514;2023-05-06T13:13:15;96481.91;;;24.47;39.96
10992;BME280;5549;47.028;15.514;2023-05-06T13:15:45;96471.03;;;24.85;38.14
10992;BME280;5549;47.028;15.514;2023-05-06T13:18:14;96472.91;;;24.84;38.92